Time;durP1;ratioP1;P1;durP2;ratioP2;P2;SDS_P1;SDS_P2;PMS_P1;PMS_P2;Temp;Humidity;BMP_temperature;BMP_pressure;BME280_temperature;BME280_humidity;BME280_pressure;Samples;Min_cycle;Max_cycle;Signal;HPM_P1;HPM_P2
2022/09/08 00:00:36;;;;;;;2.83;1.70;;;17.70;99.90;;;17.59;100.00;96688.53;4967722;28;20036;-53
2022/09/08 00:03:06;;;;;;;2.55;1.80;;;17.70;99.90;;;17.58;100.00;96686.81;4969435;28;20173;-53
2022/09/08 00:05:38;;;;;;;3.10;1.98;;;17.70;99.90;;;17.56;100.00;96689.59;4969757;28;20030;-52
2022/09/08 00:08:04;;;;;;;3.08;2.05;;;17.70;99.90;;;17.55;100.00;96686.09;4959107;28;20036;-53
2022/09/08 00:10:30;;;;;;;2.85;2.05;;;17.70;99.90;;;17.50;100.00;96679.41;4974877;28;20050;-52
2022/09/08 00:12:56;;;;;;;3.40;2.05;;;17.70;99.90;;;17.50;100.00;96672.25;4966521;28;20033;-53
2022/09/08 00:15:23;;;;;;;2.90;1.70;;;17.70;99.90;;;17.41;100.00;96650.78;4969449;28;20053;-52
2022/09/08 00:17:49;;;;;;;4.28;2.30;;;17.70;99.90;;;17.48;100.00;96647.53;4949305;28;20031;-53
2022/09/08 00:20:15;;;;;;;4.15;2.00;;;17.70;99.90;;;17.52;100.00;96656.16;4953938;28;20109;-53
2022/09/08 00:22:41;;;;;;;3.50;2.00;;;17.70;99.90;;;17.51;100.00;96655.28;4966447;28;20944;-52
2022/09/08 00:25:08;;;;;;;3.22;2.33;;;17.70;99.90;;;17.51;100.00;96663.28;4965725;28;21269;-54
2022/09/08 00:27:34;;;;;;;5.43;2.33;;;17.60;99.90;;;17.51;100.00;96660.63;4965792;28;20037;-53
2022/09/08 00:29:59;;;;;;;4.85;2.50;;;17.70;99.90;;;17.49;100.00;96659.03;4970934;28;20061;-53
2022/09/08 00:32:25;;;;;;;2.55;2.35;;;17.70;99.90;;;17.44;100.00;96672.72;4967757;28;20037;-53
2022/09/08 00:34:51;;;;;;;4.38;2.53;;;17.60;99.90;;;17.38;100.00;96669.69;4966029;28;20030;-53
2022/09/08 00:37:18;;;;;;;2.92;2.38;;;17.60;99.90;;;17.29;100.00;96677.41;4967111;28;20041;-53
2022/09/08 00:39:44;;;;;;;3.75;2.20;;;17.50;99.90;;;17.32;100.00;96687.84;4974052;28;20565;-54
2022/09/08 00:42:10;;;;;;;4.13;2.20;;;17.50;99.90;;;17.30;100.00;96694.22;4970526;28;20045;-53
2022/09/08 00:44:49;;;;;;;2.75;2.13;;;17.40;99.90;;;17.28;100.00;96696.16;4974251;28;20069;-52
2022/09/08 00:47:34;;;;;;;5.85;2.13;;;17.40;99.90;;;17.26;100.00;96682.94;4967357;28;20323;-53
2022/09/08 00:50:13;;;;;;;5.13;2.00;;;17.40;99.90;;;17.26;100.00;96696.28;4964311;28;20030;-52
2022/09/08 00:52:44;;;;;;;2.67;2.38;;;17.40;99.90;;;17.21;100.00;96703.78;4948767;28;20644;-53
2022/09/08 00:55:11;;;;;;;2.75;2.30;;;17.40;99.90;;;17.20;100.00;96744.72;4971028;28;20391;-53
2022/09/08 00:57:36;;;;;;;3.97;2.22;;;17.40;99.90;;;17.22;100.00;96749.94;4968609;28;20035;-53
2022/09/08 01:00:06;;;;;;;4.03;1.90;;;17.40;99.90;;;17.22;100.00;96740.09;4966419;28;20140;-54
2022/09/08 01:02:32;;;;;;;5.28;2.00;;;17.40;99.90;;;17.25;100.00;96726.56;4965254;28;20674;-52
2022/09/08 01:05:04;;;;;;;3.20;2.35;;;17.40;99.90;;;17.26;100.00;96730.91;4967495;28;20029;-54
2022/09/08 01:14:00;;;;;;;2.60;2.00;;;17.40;99.90;;;17.25;100.00;96739.88;4954530;28;20105;-54
2022/09/08 01:16:26;;;;;;;2.13;1.92;;;17.40;99.90;;;17.25;100.00;96734.56;4970412;28;20507;-53
2022/09/08 01:18:56;;;;;;;4.97;2.40;;;17.40;99.90;;;17.10;100.00;96709.03;4967927;28;20482;-54
2022/09/08 01:22:02;;;;;;;3.47;2.25;;;17.40;99.90;;;17.26;100.00;96730.91;4950694;28;20193;-54
2022/09/08 01:24:49;;;;;;;3.00;2.30;;;17.40;99.90;;;17.26;100.00;96733.56;4967766;28;20506;-54
2022/09/08 01:27:26;;;;;;;3.58;2.70;;;17.40;99.90;;;17.22;100.00;96726.78;4954818;28;20061;-53
2022/09/08 01:29:59;;;;;;;3.42;2.20;;;17.40;99.90;;;17.26;100.00;96730.91;4965940;28;20038;-53
2022/09/08 01:32:32;;;;;;;2.47;2.10;;;17.40;99.90;;;17.24;100.00;96727.53;4947483;28;20929;-53
2022/09/08 01:38:40;;;;;;;3.90;2.28;;;17.40;99.90;;;17.21;100.00;96716.25;4965976;28;20073;-54
2022/09/08 01:41:06;;;;;;;4.40;2.83;;;17.40;99.90;;;17.17;100.00;96716.50;4971648;28;20149;-53
2022/09/08 01:43:32;;;;;;;2.50;2.28;;;17.40;99.90;;;17.19;100.00;96716.34;4973900;28;20099;-52
2022/09/08 01:45:58;;;;;;;2.35;2.15;;;17.30;99.90;;;17.00;100.00;96684.06;4972401;28;20038;-53
2022/09/08 01:48:24;;;;;;;6.88;2.13;;;17.30;99.90;;;17.16;100.00;96708.59;4974215;28;20126;-54
2022/09/08 01:50:50;;;;;;;3.17;2.22;;;17.30;99.90;;;17.12;100.00;96712.44;4970026;28;20520;-54
2022/09/08 01:53:17;;;;;;;2.58;2.22;;;17.30;99.90;;;17.07;100.00;96695.97;4975956;28;20451;-53
2022/09/08 01:55:46;;;;;;;2.50;2.00;;;17.20;99.90;;;17.05;100.00;96712.06;4975259;28;20030;-53
2022/09/08 01:58:12;;;;;;;3.03;2.28;;;17.20;99.90;;;17.03;100.00;96702.47;4952242;28;20037;-53
2022/09/08 02:00:41;;;;;;;5.28;2.42;;;17.20;99.90;;;16.98;100.00;96697.50;4972859;28;20422;-52
2022/09/08 02:03:09;;;;;;;6.32;2.80;;;17.20;99.90;;;16.99;100.00;96701.84;4973512;28;20034;-53
2022/09/08 02:05:41;;;;;;;6.95;2.63;;;17.20;99.90;;;16.97;100.00;96699.28;4973018;28;20038;-51
2022/09/08 02:08:09;;;;;;;3.00;2.55;;;17.10;99.90;;;17.00;100.00;96692.06;4940260;28;20375;-52
2022/09/08 02:10:35;;;;;;;5.75;3.20;;;17.20;99.90;;;16.98;100.00;96685.03;4974851;28;20542;-53
2022/09/08 02:13:02;;;;;;;4.93;2.90;;;17.20;99.90;;;17.01;100.00;96685.75;4972679;28;20173;-51
2022/09/08 02:15:28;;;;;;;3.63;2.55;;;17.20;99.90;;;16.98;100.00;96679.69;4976957;28;20030;-51
2022/09/08 02:17:54;;;;;;;3.47;2.40;;;17.20;99.90;;;17.04;100.00;96674.88;4971948;28;20371;-52
2022/09/08 02:20:22;;;;;;;3.53;2.55;;;17.20;99.90;;;17.01;100.00;96664.44;4972708;28;20113;-53
2022/09/08 02:22:47;;;;;;;5.88;2.25;;;17.20;99.90;;;16.96;100.00;96663.00;4940162;28;20022;-51
2022/09/08 02:25:13;;;;;;;7.28;2.60;;;17.20;99.90;;;17.01;100.00;96672.44;4973943;28;20373;-53
2022/09/08 02:27:39;;;;;;;3.08;1.98;;;17.20;99.90;;;17.00;100.00;96666.28;4970951;28;20125;-52
2022/09/08 02:30:07;;;;;;;2.92;2.15;;;17.20;99.90;;;16.98;100.00;96658.41;4970470;28;20069;-53
2022/09/08 02:32:35;;;;;;;3.58;2.00;;;17.20;99.90;;;16.97;100.00;96662.00;4965524;23;20030;-45
2022/09/08 02:35:01;;;;;;;3.08;1.90;;;17.20;99.90;;;16.97;100.00;96661.16;4994305;28;20045;-49
2022/09/08 02:37:27;;;;;;;4.07;1.80;;;17.20;99.90;;;16.92;100.00;96650.00;4990691;28;20026;-46
2022/09/08 02:39:52;;;;;;;2.38;1.73;;;17.20;99.90;;;16.91;100.00;96657.16;4994262;28;20056;-45
2022/09/08 02:42:18;;;;;;;2.65;1.73;;;17.10;99.90;;;16.89;100.00;96650.25;4980969;28;20063;-46
2022/09/08 02:44:44;;;;;;;5.03;1.60;;;17.10;99.90;;;16.87;100.00;96647.69;4984661;28;20030;-45
2022/09/08 02:47:10;;;;;;;1.98;1.60;;;17.10;99.90;;;16.86;100.00;96645.16;4988308;28;20034;-47
2022/09/08 02:49:36;;;;;;;1.80;1.40;;;17.10;99.90;;;16.83;100.00;96650.66;4989447;28;20224;-45
2022/09/08 02:52:02;;;;;;;1.60;1.50;;;17.00;99.90;;;16.81;100.00;96648.09;4973233;28;20096;-45
2022/09/08 02:54:28;;;;;;;1.40;1.30;;;17.00;99.90;;;16.77;100.00;96642.16;4988342;28;20044;-45
2022/09/08 02:56:54;;;;;;;4.15;1.45;;;17.00;99.90;;;16.72;100.00;96635.47;4986848;28;20030;-47
2022/09/08 02:59:20;;;;;;;2.78;1.30;;;17.00;99.90;;;16.71;100.00;96647.94;4986355;28;20138;-45
2022/09/08 03:01:48;;;;;;;1.67;1.38;;;16.90;99.90;;;16.70;100.00;96645.41;4988412;28;20038;-44
2022/09/08 03:04:14;;;;;;;1.95;1.27;;;16.90;99.90;;;16.71;100.00;96644.44;4990030;28;20034;-46
2022/09/08 03:06:40;;;;;;;1.35;1.10;;;16.90;99.90;;;16.71;100.00;96645.28;4983342;28;20034;-44
2022/09/08 03:09:07;;;;;;;1.20;1.08;;;16.90;99.90;;;16.68;100.00;96644.66;4985388;28;20034;-47
2022/09/08 03:11:33;;;;;;;1.10;1.00;;;16.90;99.90;;;16.69;100.00;96649.00;4980878;28;20045;-47
2022/09/08 03:14:00;;;;;;;2.33;1.30;;;16.90;99.90;;;16.67;100.00;96649.16;4986904;28;20032;-46
2022/09/08 03:16:26;;;;;;;2.33;1.20;;;16.90;99.90;;;16.81;100.00;96661.41;4989092;28;20038;-46
2022/09/08 03:18:53;;;;;;;3.47;1.20;;;16.90;99.90;;;16.74;100.00;96653.06;4985767;28;20073;-44
2022/09/08 03:21:19;;;;;;;2.42;1.23;;;16.90;99.90;;;16.71;100.00;96655.09;4986522;28;20029;-46
2022/09/08 03:23:45;;;;;;;2.15;1.10;;;16.90;99.90;;;16.71;100.00;96652.44;4988128;28;20041;-46
2022/09/08 03:26:18;;;;;;;2.10;1.05;;;16.90;99.90;;;16.69;100.00;96657.00;4986282;28;20034;-46
2022/09/08 03:28:46;;;;;;;1.65;0.98;;;16.90;99.90;;;16.67;100.00;96653.59;4987809;28;20034;-45
2022/09/08 03:31:16;;;;;;;1.30;1.20;;;16.90;99.90;;;16.66;100.00;96643.94;4971541;28;20080;-44
2022/09/08 03:33:43;;;;;;;1.20;0.80;;;16.90;99.90;;;16.63;100.00;96646.81;4984814;28;20034;-45
2022/09/08 03:36:11;;;;;;;2.58;1.15;;;16.80;99.90;;;16.61;100.00;96645.09;4972380;28;20119;-44
2022/09/08 03:38:37;;;;;;;2.58;1.08;;;16.80;99.90;;;16.60;100.00;96659.38;4971121;28;20034;-47
2022/09/08 03:41:13;;;;;;;1.58;1.10;;;16.80;99.90;;;16.59;100.00;96651.50;4987215;28;20422;-45
2022/09/08 03:43:47;;;;;;;2.15;1.30;;;16.80;99.90;;;16.58;100.00;96649.78;4972127;28;20076;-47
2022/09/08 03:46:14;;;;;;;1.20;1.10;;;16.80;99.90;;;16.56;100.00;96652.59;4980735;28;20034;-45
2022/09/08 03:48:41;;;;;;;2.60;1.13;;;16.80;99.90;;;16.55;100.00;96656.19;4981090;28;20049;-44
2022/09/08 03:51:24;;;;;;;2.40;1.10;;;16.70;99.90;;;16.51;100.00;96652.06;4990141;28;20498;-44
2022/09/08 03:53:52;;;;;;;1.98;1.00;;;16.80;99.90;;;16.53;100.00;96646.66;4987509;28;20203;-47
2022/09/08 03:56:18;;;;;;;1.50;0.80;;;16.80;99.90;;;16.48;100.00;96636.31;4987209;28;20094;-47
2022/09/08 03:58:44;;;;;;;2.58;0.93;;;16.70;99.90;;;16.51;100.00;96637.91;4987430;28;20038;-47
2022/09/08 04:01:17;;;;;;;1.88;0.70;;;16.70;99.90;;;16.49;100.00;96642.47;4987897;28;20034;-45
2022/09/08 04:03:43;;;;;;;0.93;0.70;;;16.70;99.90;;;16.44;100.00;96640.19;4988915;28;20092;-44
2022/09/08 04:06:09;;;;;;;1.25;0.93;;;16.60;99.90;;;16.40;100.00;96647.53;4994279;28;20030;-45
2022/09/08 04:08:35;;;;;;;0.90;0.77;;;16.60;99.90;;;16.38;100.00;96648.59;4992513;28;20033;-44
2022/09/08 04:11:01;;;;;;;1.75;0.93;;;16.60;99.90;;;16.33;100.00;96645.41;4991474;28;20429;-45
2022/09/08 04:13:27;;;;;;;2.67;0.95;;;16.60;99.90;;;16.35;100.00;96649.66;4991410;28;20120;-44
2022/09/08 04:15:53;;;;;;;0.93;0.73;;;16.60;99.90;;;16.32;100.00;96643.72;4993152;28;20469;-47
2022/09/08 04:18:19;;;;;;;1.55;0.80;;;16.60;99.90;;;16.28;100.00;96648.41;4990472;28;20038;-43
2022/09/08 04:20:45;;;;;;;2.10;0.88;;;16.50;99.90;;;16.27;100.00;96651.19;4991233;28;20093;-46
2022/09/08 04:23:10;;;;;;;1.60;0.90;;;16.50;99.90;;;16.26;100.00;96646.81;4995321;28;20431;-44
2022/09/08 04:25:36;;;;;;;1.15;0.95;;;16.50;99.90;;;16.26;100.00;96654.78;4995317;28;20053;-44
2022/09/08 04:28:03;;;;;;;1.02;0.90;;;16.50;99.90;;;16.28;100.00;96637.78;4991156;28;20035;-47
2022/09/08 04:30:29;;;;;;;2.75;1.13;;;16.50;99.90;;;16.28;100.00;96647.56;4995423;28;20405;-44
2022/09/08 04:32:54;;;;;;;3.22;0.98;;;16.50;99.90;;;16.24;100.00;96644.28;4992800;28;20116;-47
2022/09/08 04:35:20;;;;;;;1.33;0.90;;;16.50;99.90;;;16.20;100.00;96646.31;4996582;28;20034;-49
2022/09/08 04:37:46;;;;;;;3.03;1.17;;;16.50;99.90;;;16.06;100.00;96630.50;4992443;28;20553;-45
2022/09/08 04:40:13;;;;;;;1.33;1.05;;;16.40;99.90;;;16.18;100.00;96647.38;4992087;28;20022;-48
2022/09/08 04:42:38;;;;;;;2.20;0.82;;;16.40;99.90;;;16.16;100.00;96652.78;4993008;28;20030;-44
2022/09/08 04:45:05;;;;;;;1.85;1.00;;;16.40;99.90;;;16.18;100.00;96658.84;4976540;28;20022;-48
2022/09/08 04:47:32;;;;;;;1.48;1.02;;;16.40;99.90;;;16.15;100.00;96658.22;4992057;28;20038;-47
2022/09/08 04:49:57;;;;;;;2.03;0.80;;;16.40;99.90;;;16.12;100.00;96659.28;4994326;28;20159;-47
2022/09/08 04:52:25;;;;;;;1.88;0.90;;;16.40;99.90;;;16.17;100.00;96657.16;4995288;28;20065;-46
2022/09/08 04:54:51;;;;;;;1.80;1.20;;;16.30;99.90;;;16.00;100.00;96644.22;4996776;28;20087;-48
2022/09/08 04:57:17;;;;;;;1.15;0.82;;;16.40;99.90;;;16.11;100.00;96662.91;4993013;28;20022;-48
2022/09/08 04:59:43;;;;;;;4.18;1.02;;;16.40;99.90;;;16.14;100.00;96670.66;4993378;28;20058;-47
2022/09/08 05:02:08;;;;;;;3.30;1.10;;;16.40;99.90;;;16.10;100.00;96669.19;4985974;28;20026;-45
2022/09/08 05:04:34;;;;;;;1.17;0.73;;;16.30;99.90;;;16.08;100.00;96670.25;4990879;28;20050;-46
2022/09/08 05:07:00;;;;;;;1.30;1.00;;;16.30;99.90;;;15.90;100.00;96640.50;4991455;28;20026;-47
2022/09/08 05:09:26;;;;;;;1.52;0.73;;;16.30;99.90;;;15.91;100.00;96644.84;4987387;28;20081;-47
2022/09/08 05:11:51;;;;;;;1.30;0.95;;;16.30;99.90;;;16.01;100.00;96675.16;4991603;28;20445;-45
2022/09/08 05:14:17;;;;;;;1.90;0.90;;;16.30;99.90;;;16.04;100.00;96682.91;4991445;28;20158;-44
2022/09/08 05:16:43;;;;;;;1.25;1.10;;;16.30;99.90;;;16.05;100.00;96692.59;4992504;28;20546;-44
2022/09/08 05:19:12;;;;;;;1.90;1.27;;;16.30;99.90;;;16.04;100.00;96701.53;4990904;28;20034;-46
2022/09/08 05:21:38;;;;;;;1.67;1.00;;;16.30;99.90;;;16.05;100.00;96702.41;4989945;28;20034;-45
2022/09/08 05:24:05;;;;;;;1.85;1.00;;;16.30;99.90;;;16.05;100.00;96708.56;4991041;28;20022;-44
2022/09/08 05:26:32;;;;;;;1.50;1.10;;;16.30;99.90;;;16.07;100.00;96706.63;4988110;28;20113;-48
2022/09/08 05:28:58;;;;;;;1.05;0.93;;;16.30;99.90;;;15.99;100.00;96707.19;4990591;28;20076;-44
2022/09/08 05:31:27;;;;;;;1.85;1.17;;;16.30;99.90;;;16.06;100.00;96717.38;4989027;28;20098;-44
2022/09/08 05:33:54;;;;;;;1.88;1.10;;;16.30;99.90;;;16.07;100.00;96719.94;4974104;28;20270;-46
2022/09/08 05:36:32;;;;;;;1.90;1.05;;;16.30;99.90;;;16.07;100.00;96719.09;4963672;28;20030;-46
2022/09/08 05:38:59;;;;;;;2.80;1.00;;;16.30;99.90;;;16.10;100.00;96722.41;4993606;28;20357;-44
2022/09/08 05:41:25;;;;;;;2.42;1.10;;;16.30;99.90;;;16.09;100.00;96723.34;4987088;28;20643;-47
2022/09/08 05:43:55;;;;;;;3.55;1.35;;;16.30;99.90;;;16.06;100.00;96728.03;4972121;28;20121;-45
2022/09/08 05:46:25;;;;;;;1.67;1.35;;;16.30;99.90;;;16.09;100.00;96736.63;4989233;28;20037;-45
2022/09/08 05:48:53;;;;;;;2.53;1.25;;;16.40;99.90;;;16.09;100.00;96741.94;4989342;28;20026;-48
2022/09/08 05:51:19;;;;;;;2.15;1.33;;;16.30;99.90;;;16.11;100.00;96737.38;4990247;28;20080;-44
2022/09/08 05:53:47;;;;;;;0.98;0.88;;;16.40;99.90;;;16.11;100.00;96750.69;4980387;28;20046;-46
2022/09/08 05:56:13;;;;;;;1.67;1.08;;;16.40;99.90;;;16.08;100.00;96739.41;4994931;28;20090;-45
2022/09/08 05:58:39;;;;;;;2.00;1.00;;;16.30;99.90;;;16.11;100.00;96748.00;4989929;28;20540;-48
2022/09/08 06:01:10;;;;;;;2.13;1.05;;;16.40;99.90;;;16.09;100.00;96752.59;4987709;28;20038;-47
2022/09/08 06:03:36;;;;;;;1.38;1.00;;;16.30;99.90;;;16.10;100.00;96759.63;4986514;28;20048;-49
2022/09/08 06:06:08;;;;;;;2.35;1.33;;;16.40;99.90;;;16.09;100.00;96765.91;4994334;28;20312;-45
2022/09/08 06:08:35;;;;;;;2.20;1.20;;;16.30;99.90;;;16.10;100.00;96770.28;4992120;28;20056;-44
2022/09/08 06:11:02;;;;;;;1.58;0.93;;;16.30;99.90;;;16.06;100.00;96757.28;4993919;28;20475;-44
2022/09/08 06:13:30;;;;;;;4.13;1.10;;;16.40;99.90;;;16.05;100.00;96772.41;4987724;28;23304;-44
2022/09/08 06:16:03;;;;;;;1.65;1.02;;;16.30;99.90;;;16.02;100.00;96767.28;4988312;28;20030;-47
2022/09/08 06:18:31;;;;;;;2.22;0.70;;;16.30;99.90;;;15.96;100.00;96773.88;4991644;28;20682;-46
2022/09/08 06:20:57;;;;;;;1.67;0.90;;;16.30;99.90;;;15.96;100.00;96760.56;4989426;28;20046;-44
2022/09/08 06:23:23;;;;;;;4.50;0.77;;;16.20;99.90;;;15.88;100.00;96776.22;4991095;28;20488;-47
2022/09/08 06:25:48;;;;;;;1.40;0.68;;;16.20;99.90;;;15.80;100.00;96766.09;4989953;28;20064;-46
2022/09/08 06:28:36;;;;;;;1.35;0.70;;;16.20;99.90;;;15.83;100.00;96773.03;4985179;28;20655;-46
2022/09/08 06:31:08;;;;;;;3.03;0.90;;;16.10;99.90;;;15.80;100.00;96766.09;4994079;28;20438;-45
2022/09/08 06:33:39;;;;;;;1.73;0.70;;;16.10;99.90;;;15.73;100.00;96772.75;4973481;28;20030;-46
2022/09/08 06:37:00;;;;;;;2.42;0.77;;;16.10;99.90;;;15.75;100.00;96778.84;4984707;28;20659;-45
2022/09/08 06:39:33;;;;;;;3.38;0.85;;;16.00;99.90;;;15.74;100.00;96779.81;4983167;28;20049;-45
2022/09/08 06:42:10;;;;;;;;;;;16.00;99.90;;;15.69;100.00;96771.25;4970695;28;20049;-47
2022/09/08 06:44:39;;;;;;;1.48;0.60;;;16.00;99.90;;;15.75;100.00;96773.53;4985365;28;20032;-45
2022/09/08 06:47:15;;;;;;;1.05;0.70;;;16.00;99.90;;;15.76;100.00;96788.53;4981398;28;20040;-45
2022/09/08 06:49:41;;;;;;;0.73;0.60;;;16.00;99.90;;;15.80;100.00;96790.00;4958883;28;20034;-49
2022/09/08 06:52:50;;;;;;;1.27;0.80;;;16.10;99.90;;;15.81;100.00;96789.06;4985784;28;20422;-45
2022/09/08 06:55:40;;;;;;;0.80;0.70;;;16.10;99.90;;;15.83;100.00;96778.34;4940325;28;20121;-40
2022/09/08 06:58:28;;;;;;;1.65;0.90;;;16.10;99.90;;;15.83;100.00;96781.84;4933311;28;20062;-44
2022/09/08 07:01:09;;;;;;;1.30;0.68;;;16.10;99.90;;;15.86;100.00;96788.75;4963116;28;20034;-45
2022/09/08 07:03:53;;;;;;;0.82;0.60;;;16.10;99.90;;;15.91;100.00;96791.94;4969666;28;20026;-44
2022/09/08 07:06:24;;;;;;;0.60;0.60;;;16.10;99.90;;;15.96;100.00;96795.16;4983697;28;20045;-44
2022/09/08 07:09:21;;;;;;;0.98;0.50;;;16.20;99.90;;;16.03;100.00;96799.09;4988932;28;20038;-46
2022/09/08 07:12:05;;;;;;;0.82;0.50;;;16.20;99.90;;;16.09;100.00;96796.97;4962992;28;20100;-44
2022/09/08 07:14:51;;;;;;;1.60;0.70;;;16.30;99.90;;;16.16;100.00;96793.78;4968512;28;20490;-43
2022/09/08 07:17:37;;;;;;;1.42;0.50;;;16.40;99.90;;;16.17;100.00;96789.31;4968081;28;20048;-44
2022/09/08 07:20:10;;;;;;;1.20;0.60;;;16.50;99.90;;;16.22;100.00;96804.00;4987183;28;20522;-46
2022/09/08 07:22:48;;;;;;;1.13;0.68;;;16.50;99.90;;;16.10;100.00;96780.91;4980946;28;20038;-44
2022/09/08 07:25:18;;;;;;;1.08;0.70;;;16.50;99.90;;;16.30;100.00;96798.16;4987048;28;20506;-43
2022/09/08 07:27:49;;;;;;;2.58;0.60;;;16.60;99.90;;;16.39;100.00;96805.47;4969820;28;20114;-44
2022/09/08 07:30:18;;;;;;;1.45;0.50;;;16.70;99.90;;;16.50;100.00;96801.22;4975483;28;20105;-43
2022/09/08 07:32:49;;;;;;;1.77;0.68;;;16.80;99.90;;;16.61;100.00;96798.66;4975915;28;20669;-44
2022/09/08 07:35:27;;;;;;;2.17;0.73;;;16.90;99.90;;;16.84;100.00;96806.84;4976109;28;20088;-44
2022/09/08 07:37:56;;;;;;;1.33;0.55;;;17.10;99.90;;;16.96;100.00;96801.50;4990059;28;20285;-46
2022/09/08 07:40:46;;;;;;;1.23;0.68;;;17.20;99.90;;;17.02;100.00;96794.84;4987725;28;20034;-48
2022/09/08 07:43:15;;;;;;;2.42;0.63;;;17.30;99.90;;;17.09;100.00;96808.59;4978762;28;20183;-46
2022/09/08 07:46:31;;;;;;;1.02;0.65;;;17.30;99.90;;;17.12;100.00;96817.22;4975875;28;20026;-45
2022/09/08 07:49:26;;;;;;;0.73;0.55;;;17.40;99.90;;;17.26;100.00;96815.34;4968578;28;20042;-46
2022/09/08 07:52:24;;;;;;;0.98;0.60;;;17.50;99.90;;;17.43;100.00;96827.44;4969007;28;20221;-43
2022/09/08 07:55:20;;;;;;;0.60;0.60;;;17.70;99.90;;;17.53;100.00;96829.31;4990481;28;20038;-45
2022/09/08 07:58:13;;;;;;;0.95;0.55;;;17.80;99.90;;;17.58;100.00;96828.13;4985612;28;20029;-45
2022/09/08 08:00:49;;;;;;;;;;;17.80;99.90;;;17.68;100.00;96829.97;4983761;28;20096;-42
2022/09/08 08:03:52;;;;;;;3.97;0.50;;;17.90;99.90;;;17.69;100.00;96830.81;4991394;28;19921;-42
2022/09/08 08:06:30;;;;;;;0.70;0.40;;;17.90;99.90;;;17.69;100.00;96828.16;4996805;28;20441;-47
2022/09/08 08:09:03;;;;;;;0.50;0.50;;;17.90;99.90;;;17.61;100.00;96831.41;4986663;28;21819;-46
2022/09/08 08:12:04;;;;;;;1.52;0.50;;;17.80;99.90;;;17.55;100.00;96838.03;4990653;28;20442;-46
2022/09/08 08:14:47;;;;;;;0.95;0.70;;;17.70;99.90;;;17.63;100.00;96836.63;4967543;28;20041;-45
2022/09/08 08:17:12;;;;;;;1.05;0.50;;;17.80;99.90;;;17.65;100.00;96830.19;4963832;28;20034;-46
2022/09/08 08:20:14;;;;;;;1.38;0.70;;;17.80;99.90;;;17.72;100.00;96838.59;4983242;28;20061;-47
2022/09/08 08:22:55;;;;;;;1.20;0.40;;;17.90;99.90;;;17.69;100.00;96838.81;4976519;28;20273;-45
2022/09/08 08:25:29;;;;;;;3.55;0.70;;;17.90;99.90;;;17.66;100.00;96841.75;4984456;28;20029;-43
2022/09/08 08:28:09;;;;;;;0.90;0.60;;;17.90;99.90;;;17.69;100.00;96841.50;4971372;28;20041;-46
2022/09/08 08:30:44;;;;;;;1.48;0.55;;;17.90;99.90;;;17.69;100.00;96839.69;4984297;28;20039;-47
2022/09/08 08:33:21;;;;;;;1.17;0.70;;;17.90;99.90;;;17.61;100.00;96854.56;4987198;22;20029;-44
2022/09/08 08:36:03;;;;;;;3.03;0.60;;;17.80;99.90;;;17.42;100.00;96853.22;4961593;28;20038;-45
2022/09/08 08:38:40;;;;;;;1.05;0.50;;;17.60;99.90;;;17.36;100.00;96849.19;4981206;28;20034;-44
2022/09/08 08:41:27;;;;;;;1.75;0.50;;;17.60;99.90;;;17.44;100.00;96863.78;4952539;28;20030;-44
2022/09/08 08:44:20;;;;;;;2.63;0.50;;;17.60;99.90;;;17.57;100.00;96859.25;4962273;28;20494;-45
2022/09/08 08:47:18;;;;;;;1.27;0.43;;;17.70;99.90;;;17.63;100.00;96858.78;4942083;28;20495;-47
2022/09/08 08:50:21;;;;;;;1.55;0.63;;;17.90;99.90;;;17.85;100.00;96858.06;4955036;28;20034;-48
2022/09/08 08:53:05;;;;;;;;;;;18.00;99.90;;;18.05;100.00;96869.94;4967001;28;20038;-46
2022/09/08 08:56:11;;;;;;;1.13;0.70;;;18.30;99.90;;;18.30;93.73;96870.72;4970593;28;19920;-47
2022/09/08 08:58:44;;;;;;;1.35;0.60;;;18.60;99.90;;;18.35;94.34;96867.69;4955133;28;20169;-48
2022/09/08 09:01:16;;;;;;;1.75;0.68;;;18.70;99.90;;;18.37;98.80;96869.28;4945437;28;20038;-46
2022/09/08 09:04:03;;;;;;;1.33;0.65;;;18.70;99.90;;;18.26;97.56;96882.59;4973785;28;20141;-44
2022/09/08 09:07:08;;;;;;;4.97;0.60;;;18.60;99.90;;;18.12;96.56;96884.50;4966784;28;20045;-47
2022/09/08 09:10:05;;;;;;;0.60;0.60;;;18.50;99.90;;;18.15;96.56;96874.56;4964761;28;20120;-43
2022/09/08 09:12:37;;;;;;;1.20;0.50;;;18.50;99.90;;;18.24;94.97;96877.38;4967870;28;20065;-48
2022/09/08 09:15:21;;;;;;;1.55;0.60;;;18.60;99.90;;;18.34;95.17;96863.31;4962120;28;20049;-47
2022/09/08 09:18:11;;;;;;;0.40;0.40;;;18.70;99.90;;;18.61;90.46;96869.22;4971683;28;20062;-48
2022/09/08 09:20:58;;;;;;;1.02;0.45;;;18.90;99.90;;;18.74;89.81;96874.44;4974369;28;20025;-46
2022/09/08 09:23:42;;;;;;;2.05;0.50;;;19.10;99.90;;;18.73;87.27;96867.38;4952782;28;20442;-47
2022/09/08 09:26:22;;;;;;;0.43;0.40;;;19.10;99.90;;;18.63;87.27;96877.94;4975092;28;20512;-45
2022/09/08 09:29:04;;;;;;;1.00;0.40;;;18.90;99.90;;;18.59;86.29;96878.28;4963935;28;20034;-48
2022/09/08 09:32:04;;;;;;;1.30;0.55;;;18.90;99.90;;;18.62;81.64;96865.56;4976981;28;20725;-46
2022/09/08 09:35:01;;;;;;;0.98;0.52;;;19.00;99.90;;;18.73;85.03;96879.91;4978730;28;20411;-46
2022/09/08 09:37:57;;;;;;;2.30;0.60;;;19.10;99.90;;;18.86;85.77;96883.31;4958707;28;20034;-47
2022/09/08 09:41:04;;;;;;;0.75;0.57;;;19.20;99.90;;;19.08;83.37;96880.66;4978659;28;20098;-48
2022/09/08 09:43:56;;;;;;;0.70;0.40;;;19.40;99.90;;;19.19;81.94;96863.78;4975447;28;20026;-47
2022/09/08 09:46:48;;;;;;;2.17;0.70;;;19.50;99.90;;;19.37;83.41;96866.78;4948545;28;20979;-47
2022/09/08 09:49:22;;;;;;;1.17;0.60;;;19.60;99.90;;;19.51;81.94;96867.50;4957155;28;20108;-47
2022/09/08 09:52:32;;;;;;;0.30;0.30;;;19.70;99.90;;;19.56;84.59;96871.50;4978158;28;20418;-46
2022/09/08 09:55:30;;;;;;;0.60;0.52;;;19.80;99.90;;;19.88;82.85;96869.84;4955453;28;20034;-47
2022/09/08 09:58:26;;;;;;;0.73;0.50;;;20.10;99.90;;;20.35;75.82;96871.19;4976082;28;20485;-47
2022/09/08 10:01:24;;;;;;;0.73;0.40;;;20.60;99.90;;;20.79;77.52;96854.97;4977517;28;20038;-47
2022/09/08 10:04:16;;;;;;;0.85;0.50;;;21.10;99.90;;;21.12;89.95;96863.72;4961888;28;21104;-48
2022/09/08 10:07:10;;;;;;;0.75;0.47;;;21.50;99.90;;;20.95;70.91;96859.84;4976707;28;20042;-47
2022/09/08 10:10:43;;;;;;;1.63;0.50;;;21.50;99.90;;;20.91;77.62;96856.59;4978078;28;20037;-49
2022/09/08 10:13:20;;;;;;;0.80;0.40;;;21.30;99.90;;;20.84;75.89;96857.28;4975305;28;20030;-48
2022/09/08 10:16:25;;;;;;;4.68;0.60;;;21.20;99.90;;;20.70;66.62;96858.47;4977522;28;20460;-48
2022/09/08 10:19:29;;;;;;;1.20;0.50;;;21.20;99.90;;;20.72;70.97;96862.69;4985374;28;20031;-49
2022/09/08 10:22:14;;;;;;;0.90;0.43;;;21.20;99.90;;;20.60;69.26;96859.22;4956684;28;20751;-49
2022/09/08 10:25:10;;;;;;;2.05;0.50;;;21.10;99.90;;;20.53;69.21;96875.94;4976062;28;20056;-47
2022/09/08 10:28:10;;;;;;;1.30;0.50;;;20.90;99.90;;;20.30;69.98;96862.69;4975938;28;20034;-48
2022/09/08 10:31:20;;;;;;;1.30;0.32;;;20.80;99.90;;;20.40;70.90;96868.97;4950320;28;20548;-46
2022/09/08 10:34:34;;;;;;;0.88;0.52;;;20.80;99.90;;;20.69;73.31;96859.44;4974538;28;20500;-47
2022/09/08 10:37:20;;;;;;;1.38;0.63;;;20.90;99.90;;;20.86;69.99;96861.50;4971607;28;20041;-45
2022/09/08 10:40:26;;;;;;;1.83;0.60;;;21.10;99.90;;;20.84;67.83;96859.94;4961427;28;20184;-48
2022/09/08 10:42:54;;;;;;;0.85;0.45;;;21.20;99.90;;;20.76;67.22;96856.09;4976836;28;20483;-45
2022/09/08 10:45:54;;;;;;;0.80;0.55;;;21.10;99.90;;;20.67;70.71;96854.19;4956096;28;20473;-45
2022/09/08 10:48:48;;;;;;;1.02;0.68;;;20.90;99.90;;;20.54;76.40;96867.78;4974396;28;20481;-46
2022/09/08 10:51:38;;;;;;;1.45;0.45;;;20.80;99.90;;;20.30;70.80;96876.09;4976126;28;20034;-47
2022/09/08 10:54:46;;;;;;;1.13;0.60;;;20.60;99.90;;;20.21;78.15;96863.50;4965014;28;21624;-47
2022/09/08 10:57:46;;;;;;;8.00;0.75;;;20.50;99.90;;;20.27;74.56;96865.63;4945199;28;20050;-47
2022/09/08 11:00:23;;;;;;;1.17;0.50;;;20.50;99.90;;;20.23;70.69;96874.91;4947219;28;20735;-47